Nearby METAR Reports

Here are local weather reports from nearby weather stations and airports.

KHFD - Hartford/Brainar, Connecticut, USA
Distance from station: NE 5mi, 8km
Updated: Thu, 04/15/21 9:58pm EDT
Rain, Overcast
Rain, Overcast
 Wind from NE
Wind: NE 13 mph , 20 km/h
Temperature: 43°F , 6°C
Wind Chill: 36°F , 2°C
Dew Point: 36°F , 2°C
Humidity: 76%
Barometer: 29.74 inHg , 1007.1 hPa
Summary: Rain
Clouds: Overcast
Visibility: 5 miles , 8 km
Cloud details: Mostly cloudy 1700 ft
Overcast 2500 ft
2021/04/16 01:58 KHFD 160158Z 04011KT 5SM RA BKN017 OVC025 06/02 A2974 RMK AO2 P0000 T00560022
KMMK - Meriden, Connecticut, USA
Distance from station: SSW 13mi, 21km
Updated: Thu, 04/15/21 9:53pm EDT
Rain, Overcast
Rain, Overcast
 Wind from NNE
Wind: NNE 9 mph , 15 km/h
Temperature: 39°F , 4°C
Wind Chill: 33°F , 1°C
Dew Point: 37°F , 3°C
Humidity: 93%
Barometer: 29.73 inHg , 1006.8 hPa
Summary: Rain
Clouds: Overcast
Visibility: 7 miles , 11 km
Cloud details: Overcast 3900 ft
2021/04/16 01:53 KMMK 160153Z AUTO 03008KT 7SM RA OVC039 04/03 A2973 RMK AO2 SLP066 P0011 T00440028
 
KBDL - Windsor Locks, Connecticut, USA
Distance from station: N 17mi, 28km
Updated: Thu, 04/15/21 9:51pm EDT
Rain, Mist, Overcast
Rain, Mist, Overcast
 Wind from NNW
Wind: NNW 5 mph , 7 km/h
Temperature: 39°F , 4°C
Wind Chill: 35°F , 2°C
Dew Point: 37°F , 3°C
Humidity: 93%
Barometer: 29.75 inHg , 1007.5 hPa
Summary: Rain, Mist
Clouds: Overcast
Visibility: 4 miles , 6 km
Cloud details: Mostly cloudy 2100 ft
Overcast 2600 ft
2021/04/16 01:51 KBDL 160151Z 33004KT 4SM RA BR BKN021 OVC026 04/03 A2975 RMK AO2 SLP075 P0009 T00440028 $
KSNC - Chester, Connecticut, USA
Distance from station: SSE 24mi, 38km
Updated: Thu, 04/15/21 9:55pm EDT
Light rain, Overcast
Light rain, Overcast
 Wind from N
Wind: N 5 mph , 7 km/h
Temperature: 39°F , 4°C
Wind Chill: 35°F , 2°C
Dew Point: 39°F , 4°C
Humidity: 100%
Barometer: 29.71 inHg , 1006.1 hPa
Summary: Light rain
Clouds: Overcast
Visibility: 5 miles , 8 km
Cloud details: Few Clouds 100 ft
Partly cloudy 2400 ft
Overcast 3100 ft
2021/04/16 01:55 KSNC 160155Z AUTO 35004KT 5SM -RA FEW001 SCT024 OVC031 04/04 A2971 RMK AO2
 
KOXC - Oxford/Waterbury, Connecticut, USA
Distance from station: SW 26mi, 42km
Updated: Thu, 04/15/21 9:51pm EDT
Rain, Mist, Overcast
Rain, Mist, Overcast
 Wind from NNE
Wind: NNE 6 mph , 9 km/h
Temperature: 39°F , 4°C
Wind Chill: 35°F , 2°C
Dew Point: 39°F , 4°C
Humidity: 100%
Barometer: 29.72 inHg , 1006.4 hPa
Summary: Rain, Mist
Clouds: Overcast
Visibility: 5 miles , 8 km
Cloud details: Partly cloudy 600 ft
Mostly cloudy 2100 ft
Overcast 2800 ft
2021/04/16 01:51 KOXC 160151Z AUTO 02005KT 5SM RA BR SCT006 BKN021 OVC028 04/04 A2972 RMK AO2 SLP078 P0006 T00390039
KIJD - Willimantic, Connecticut, USA
Distance from station: E 28mi, 45km
Updated: Thu, 04/15/21 9:52pm EDT
Rain, Mist, Overcast
Rain, Mist, Overcast
 Wind from NW
Wind: NW 6 mph , 9 km/h
Temperature: 39°F , 4°C
Wind Chill: 35°F , 2°C
Dew Point: 37°F , 3°C
Humidity: 93%
Barometer: 29.73 inHg , 1006.8 hPa
Summary: Rain, Mist
Clouds: Overcast
Visibility: 4 miles , 6 km
Cloud details: Mostly cloudy 1900 ft
Mostly cloudy 2600 ft
Overcast 3600 ft
2021/04/16 01:52 KIJD 160152Z AUTO 32005KT 4SM RA BR BKN019 BKN026 OVC036 04/03 A2973 RMK AO2 SLP067 P0009 T00440028
 
KHVN - New Haven/Tweed, Connecticut, USA
Distance from station: SSW 30mi, 48km
Updated: Thu, 04/15/21 10:00pm EDT
Light rain, Overcast
Light rain, Overcast
 Wind from NNE
Wind: NNE 9 mph , 15 km/h
Temperature: 43°F , 6°C
Wind Chill: 38°F , 3°C
Dew Point: 39°F , 4°C
Humidity: 87%
Barometer: 29.70 inHg , 1005.8 hPa
Summary: Light rain
Clouds: Overcast
Visibility: 7 miles , 11 km
Cloud details: Overcast 4000 ft
2021/04/16 02:00 KHVN 160200Z AUTO 02008KT 7SM -RA OVC040 06/04 A2970 RMK AO2 P0001 T00610044
KBAF - Westfield, Massachusetts, USA
Distance from station: 0 33mi, 54km
Updated: Thu, 04/15/21 9:53pm EDT
Rain, Mist, Overcast
Rain, Mist, Overcast
 Wind from NNW
Wind: NNW 9 mph , 15 km/h
Temperature: 39°F , 4°C
Wind Chill: 33°F , 1°C
Dew Point: 39°F , 4°C
Humidity: 100%
Barometer: 29.74 inHg , 1007.1 hPa
Summary: Rain, Mist
Clouds: Overcast
Visibility: 6 miles , 10 km
Cloud details: Mostly cloudy 1300 ft
Mostly cloudy 1800 ft
Overcast 2400 ft
2021/04/16 01:53 KBAF 160153Z 33008KT 6SM RA BR BKN013 BKN018 OVC024 04/04 A2974 RMK AO2 SLP076 P0010 T00440039
 
KCEF - Chicopee/Westove, Massachusetts, USA
Distance from station: NNE 37mi, 60km
Updated: Thu, 04/15/21 9:56pm EDT
Rain, Mist, Overcast
Rain, Mist, Overcast
 Wind from NNE
Wind: NNE 8 mph , 13 km/h
Temperature: 41°F , 5°C
Wind Chill: 36°F , 2°C
Dew Point: 39°F , 4°C
Humidity: 93%
Barometer: 29.74 inHg , 1007.1 hPa
Summary: Rain, Mist
Clouds: Overcast
Visibility: 4 miles , 6 km
Cloud details: Mostly cloudy 500 ft
Mostly cloudy 1800 ft
Overcast 3800 ft
2021/04/16 01:56 KCEF 160156Z 02007KT 4SM RA BR BKN005 BKN018 OVC038 05/04 A2974 RMK AO2A SLP078 WND DATA ESTMD P0006 T00490040
KBDR - Bridgeport, Connecticut, USA
Distance from station: SSW 42mi, 67km
Updated: Thu, 04/15/21 9:52pm EDT
Light rain, Mist, Overcast
Light rain, Mist, Overcast
 Wind from NE
Wind: NE 3 mph , 6 km/h
Temperature: 45°F , 7°C
Dew Point: 43°F , 6°C
Humidity: 93%
Barometer: 29.70 inHg , 1005.8 hPa
Summary: Light rain, Mist
Clouds: Overcast
Visibility: 6 miles , 10 km
Cloud details: Few Clouds 600 ft
Partly cloudy 1100 ft
Overcast 3900 ft
2021/04/16 01:52 KBDR 160152Z 05003KT 6SM -RA BR FEW006 SCT011 OVC039 07/06 A2970 RMK AO2 SLP058 P0008 T00720061
 
KGON - Groton/New Londo, Connecticut, USA
Distance from station: SE 42mi, 68km
Updated: Thu, 04/15/21 9:56pm EDT
Rain, Mist, Overcast
Rain, Mist, Overcast
 Wind from NNW
Wind: NNW 12 mph , 19 km/h
Temperature: 43°F , 6°C
Wind Chill: 37°F , 3°C
Dew Point: 39°F , 4°C
Humidity: 87%
Barometer: 29.69 inHg , 1005.4 hPa
Summary: Rain, Mist
Clouds: Overcast
Visibility: 5 miles , 8 km
Cloud details: Few Clouds 1200 ft
Overcast 1900 ft
2021/04/16 01:56 KGON 160156Z 33010KT 5SM RA BR FEW012 OVC019 06/04 A2969 RMK AO2 PK WND 09026/0103 PRESRR SLP053 P0017 T00560039
KDXR - Danbury, Connecticut, USA
Distance from station: WSW 45mi, 73km
Updated: Thu, 04/15/21 9:53pm EDT
Light rain, Overcast
Light rain, Overcast
 Wind from NNE
Wind: NNE 10 mph , 17 km/h
Temperature: 45°F , 7°C
Wind Chill: 40°F , 4°C
Dew Point: 39°F , 4°C
Humidity: 81%
Barometer: 29.72 inHg , 1006.4 hPa
Summary: Light rain
Clouds: Overcast
Visibility: 9 miles , 14 km
Cloud details: Few Clouds 1400 ft
Partly cloudy 2000 ft
Overcast 3900 ft
2021/04/16 01:53 KDXR 160153Z 02009KT 9SM -RA FEW014 SCT020 OVC039 07/04 A2972 RMK AO2 SLP064 P0005 T00720039